Terminal Aerodrome Forecast
Issued by NWS Oklahoma City, OK

Home | Current Version | Previous Version | Text Only | Print | Product List | Glossary On
Versions: 1 2 3 4 5 6 7 8 9 10 11 12 13 14 15 16 17 18 19 20 21 22 23 24 25 26 27 28 29 30 31 32 33 34
000
FTUS44 KOUN 030215 AAB
TAFOUN
TAF AMD
KOUN 030215Z 0302/0324 14007KT 2SM BR OVC003
      TEMPO 0302/0306 1SM -DZ
     FM031400 20014G25KT P6SM SCT004 OVC015
     FM032000 24008KT P6SM OVC050=

USA.gov is the U.S. government's official web portal to all federal, state and local government web resources and services.